sensor_id;sensor_type;location;lat;lon;timestamp;pressure;altitude;pressure_sealevel;temperature;humidity
51876;BME280;34054;52.100;5.116;2022-11-20T00:00:15;101200.44;;;-0.26;76.37
51876;BME280;34054;52.100;5.116;2022-11-20T00:00:47;101172.66;;;-0.40;76.63
51876;BME280;34054;52.100;5.116;2022-11-20T00:01:20;101195.34;;;-0.36;76.86
51876;BME280;34054;52.100;5.116;2022-11-20T00:01:54;101190.81;;;-0.36;76.85
51876;BME280;34054;52.100;5.116;2022-11-20T00:02:26;101198.97;;;-0.29;76.83
51876;BME280;34054;52.100;5.116;2022-11-20T00:02:58;101196.41;;;-0.45;77.33
51876;BME280;34054;52.100;5.116;2022-11-20T00:03:31;101193.41;;;-0.51;77.51
51876;BME280;34054;52.100;5.116;2022-11-20T00:04:03;101198.09;;;-0.53;77.75
51876;BME280;34054;52.100;5.116;2022-11-20T00:04:35;101196.59;;;-0.55;77.80
51876;BME280;34054;52.100;5.116;2022-11-20T00:05:08;101174.47;;;-0.64;77.78
51876;BME280;34054;52.100;5.116;2022-11-20T00:05:40;101182.44;;;-0.56;77.91
51876;BME280;34054;52.100;5.116;2022-11-20T00:06:14;101194.88;;;-0.40;78.06
51876;BME280;34054;52.100;5.116;2022-11-20T00:06:47;101201.31;;;-0.34;77.96
51876;BME280;34054;52.100;5.116;2022-11-20T00:07:19;101207.78;;;-0.28;78.00
51876;BME280;34054;52.100;5.116;2022-11-20T00:07:52;101192.63;;;-0.28;77.83
51876;BME280;34054;52.100;5.116;2022-11-20T00:08:25;101203.97;;;-0.26;78.05
51876;BME280;34054;52.100;5.116;2022-11-20T00:08:58;101200.50;;;-0.35;78.43
51876;BME280;34054;52.100;5.116;2022-11-20T00:09:32;101205.19;;;-0.37;78.60
51876;BME280;34054;52.100;5.116;2022-11-20T00:10:05;101197.31;;;-0.30;78.65
51876;BME280;34054;52.100;5.116;2022-11-20T00:10:37;101189.09;;;-0.28;78.27
51876;BME280;34054;52.100;5.116;2022-11-20T00:11:13;101196.19;;;-0.12;78.03
51876;BME280;34054;52.100;5.116;2022-11-20T00:11:46;101194.88;;;-0.17;77.87
51876;BME280;34054;52.100;5.116;2022-11-20T00:12:18;101198.72;;;-0.19;78.07
51876;BME280;34054;52.100;5.116;2022-11-20T00:12:51;101184.13;;;-0.32;78.16
51876;BME280;34054;52.100;5.116;2022-11-20T00:13:23;101181.69;;;-0.41;78.35
51876;BME280;34054;52.100;5.116;2022-11-20T00:13:57;101196.53;;;-0.39;78.72
51876;BME280;34054;52.100;5.116;2022-11-20T00:14:31;101193.97;;;-0.32;78.84
51876;BME280;34054;52.100;5.116;2022-11-20T00:15:04;101196.88;;;-0.42;78.69
51876;BME280;34054;52.100;5.116;2022-11-20T00:15:36;101187.00;;;-0.41;79.11
51876;BME280;34054;52.100;5.116;2022-11-20T00:16:14;101194.16;;;-0.34;78.93
51876;BME280;34054;52.100;5.116;2022-11-20T00:16:47;101198.44;;;-0.24;78.76
51876;BME280;34054;52.100;5.116;2022-11-20T00:17:20;101201.28;;;-0.26;78.68
51876;BME280;34054;52.100;5.116;2022-11-20T00:17:52;101191.31;;;-0.32;78.97
51876;BME280;34054;52.100;5.116;2022-11-20T00:18:24;101209.66;;;-0.29;78.95
51876;BME280;34054;52.100;5.116;2022-11-20T00:18:57;101188.34;;;-0.37;79.01
51876;BME280;34054;52.100;5.116;2022-11-20T00:19:29;101203.97;;;-0.34;79.10
51876;BME280;34054;52.100;5.116;2022-11-20T00:20:01;101200.31;;;-0.33;79.05
51876;BME280;34054;52.100;5.116;2022-11-20T00:20:34;101195.69;;;-0.39;79.11
51876;BME280;34054;52.100;5.116;2022-11-20T00:21:09;101190.16;;;-0.38;79.17
51876;BME280;34054;52.100;5.116;2022-11-20T00:21:42;101200.97;;;-0.31;79.13
51876;BME280;34054;52.100;5.116;2022-11-20T00:22:15;101168.75;;;-0.53;79.40
51876;BME280;34054;52.100;5.116;2022-11-20T00:22:47;101188.56;;;-0.47;79.51
51876;BME280;34054;52.100;5.116;2022-11-20T00:23:19;101177.09;;;-0.56;79.43
51876;BME280;34054;52.100;5.116;2022-11-20T00:23:54;101193.69;;;-0.37;79.55
51876;BME280;34054;52.100;5.116;2022-11-20T00:24:27;101173.66;;;-0.41;79.21
51876;BME280;34054;52.100;5.116;2022-11-20T00:25:00;101185.66;;;-0.37;79.22
51876;BME280;34054;52.100;5.116;2022-11-20T00:25:33;101193.00;;;-0.39;79.42
51876;BME280;34054;52.100;5.116;2022-11-20T00:26:06;101168.84;;;-0.46;79.24
51876;BME280;34054;52.100;5.116;2022-11-20T00:26:41;101188.69;;;-0.40;79.41
51876;BME280;34054;52.100;5.116;2022-11-20T00:27:12;101193.81;;;-0.30;79.48
51876;BME280;34054;52.100;5.116;2022-11-20T00:27:44;101185.00;;;-0.39;79.32
51876;BME280;34054;52.100;5.116;2022-11-20T00:28:17;101169.19;;;-0.41;79.32
51876;BME280;34054;52.100;5.116;2022-11-20T00:28:50;101186.63;;;-0.30;79.47
51876;BME280;34054;52.100;5.116;2022-11-20T00:29:23;101179.22;;;-0.20;79.23
51876;BME280;34054;52.100;5.116;2022-11-20T00:29:56;101179.94;;;-0.26;78.96
51876;BME280;34054;52.100;5.116;2022-11-20T00:30:27;101181.34;;;-0.38;79.12
51876;BME280;34054;52.100;5.116;2022-11-20T00:31:02;101176.03;;;-0.46;79.17
51876;BME280;34054;52.100;5.116;2022-11-20T00:31:36;101174.72;;;-0.51;79.26
51876;BME280;34054;52.100;5.116;2022-11-20T00:32:08;101166.25;;;-0.54;79.22
51876;BME280;34054;52.100;5.116;2022-11-20T00:32:39;101178.56;;;-0.53;79.49
51876;BME280;34054;52.100;5.116;2022-11-20T00:33:12;101177.44;;;-0.59;79.67
51876;BME280;34054;52.100;5.116;2022-11-20T00:33:44;101166.00;;;-0.68;79.61
51876;BME280;34054;52.100;5.116;2022-11-20T00:34:16;101165.81;;;-0.66;79.92
51876;BME280;34054;52.100;5.116;2022-11-20T00:34:49;101172.63;;;-0.64;80.15
51876;BME280;34054;52.100;5.116;2022-11-20T00:35:21;101173.63;;;-0.56;80.14
51876;BME280;34054;52.100;5.116;2022-11-20T00:35:52;101163.22;;;-0.51;79.82
51876;BME280;34054;52.100;5.116;2022-11-20T00:36:26;101167.59;;;-0.58;79.95
51876;BME280;34054;52.100;5.116;2022-11-20T00:37:00;101178.44;;;-0.52;80.05
51876;BME280;34054;52.100;5.116;2022-11-20T00:37:31;101177.53;;;-0.44;80.06
51876;BME280;34054;52.100;5.116;2022-11-20T00:38:03;101170.22;;;-0.50;80.22
51876;BME280;34054;52.100;5.116;2022-11-20T00:38:36;101173.25;;;-0.53;80.06
51876;BME280;34054;52.100;5.116;2022-11-20T00:39:09;101155.69;;;-0.48;80.34
51876;BME280;34054;52.100;5.116;2022-11-20T00:39:41;101165.03;;;-0.43;79.93
51876;BME280;34054;52.100;5.116;2022-11-20T00:40:14;101159.97;;;-0.38;80.12
51876;BME280;34054;52.100;5.116;2022-11-20T00:40:45;101162.72;;;-0.23;80.04
51876;BME280;34054;52.100;5.116;2022-11-20T00:41:17;101159.47;;;-0.10;79.70
51876;BME280;34054;52.100;5.116;2022-11-20T00:41:48;101160.81;;;-0.14;79.60
51876;BME280;34054;52.100;5.116;2022-11-20T00:42:22;101156.88;;;-0.19;79.21
51876;BME280;34054;52.100;5.116;2022-11-20T00:42:53;101161.97;;;-0.09;79.38
51876;BME280;34054;52.100;5.116;2022-11-20T00:43:26;101155.81;;;-0.09;78.67
51876;BME280;34054;52.100;5.116;2022-11-20T00:43:59;101151.25;;;-0.32;78.75
51876;BME280;34054;52.100;5.116;2022-11-20T00:44:31;101156.88;;;-0.19;78.70
51876;BME280;34054;52.100;5.116;2022-11-20T00:45:03;101154.00;;;-0.17;78.85
51876;BME280;34054;52.100;5.116;2022-11-20T00:45:37;101160.22;;;-0.25;78.86
51876;BME280;34054;52.100;5.116;2022-11-20T00:46:14;101152.75;;;-0.29;79.04
51876;BME280;34054;52.100;5.116;2022-11-20T00:46:47;101159.28;;;-0.32;78.87
51876;BME280;34054;52.100;5.116;2022-11-20T00:47:20;101158.97;;;-0.37;78.37
51876;BME280;34054;52.100;5.116;2022-11-20T00:47:52;101163.84;;;-0.41;78.46
51876;BME280;34054;52.100;5.116;2022-11-20T00:48:23;101157.03;;;-0.43;78.43
51876;BME280;34054;52.100;5.116;2022-11-20T00:48:56;101153.38;;;-0.51;78.33
51876;BME280;34054;52.100;5.116;2022-11-20T00:49:28;101157.91;;;-0.51;78.63
51876;BME280;34054;52.100;5.116;2022-11-20T00:50:01;101157.38;;;-0.46;78.83
51876;BME280;34054;52.100;5.116;2022-11-20T00:50:32;101155.94;;;-0.34;78.95
51876;BME280;34054;52.100;5.116;2022-11-20T00:51:04;101148.66;;;-0.40;78.98
51876;BME280;34054;52.100;5.116;2022-11-20T00:51:36;101151.97;;;-0.38;78.95
51876;BME280;34054;52.100;5.116;2022-11-20T00:52:09;101133.09;;;-0.37;78.83
51876;BME280;34054;52.100;5.116;2022-11-20T00:52:41;101156.97;;;-0.12;78.74
51876;BME280;34054;52.100;5.116;2022-11-20T00:53:12;101153.81;;;-0.16;78.85
51876;BME280;34054;52.100;5.116;2022-11-20T00:53:45;101157.94;;;-0.28;78.96
51876;BME280;34054;52.100;5.116;2022-11-20T00:54:20;101155.59;;;-0.31;79.20
51876;BME280;34054;52.100;5.116;2022-11-20T00:54:51;101162.72;;;-0.23;79.26
51876;BME280;34054;52.100;5.116;2022-11-20T00:55:23;101160.69;;;-0.21;79.31
51876;BME280;34054;52.100;5.116;2022-11-20T00:55:57;101158.22;;;-0.23;79.16
51876;BME280;34054;52.100;5.116;2022-11-20T00:56:30;101159.28;;;-0.32;79.21
51876;BME280;34054;52.100;5.116;2022-11-20T00:57:01;101156.31;;;-0.37;79.30
51876;BME280;34054;52.100;5.116;2022-11-20T00:57:34;101158.97;;;-0.37;79.29
51876;BME280;34054;52.100;5.116;2022-11-20T00:58:06;101158.59;;;-0.34;79.36
51876;BME280;34054;52.100;5.116;2022-11-20T00:58:38;101162.78;;;-0.32;79.44
51876;BME280;34054;52.100;5.116;2022-11-20T00:59:12;101160.13;;;-0.32;79.21
51876;BME280;34054;52.100;5.116;2022-11-20T00:59:44;101159.28;;;-0.32;79.55
51876;BME280;34054;52.100;5.116;2022-11-20T01:00:16;101159.47;;;-0.34;79.68
51876;BME280;34054;52.100;5.116;2022-11-20T01:00:49;101161.59;;;-0.29;79.60
51876;BME280;34054;52.100;5.116;2022-11-20T01:01:22;101162.34;;;-0.20;79.26
51876;BME280;34054;52.100;5.116;2022-11-20T01:01:55;101152.66;;;-0.36;79.29
51876;BME280;34054;52.100;5.116;2022-11-20T01:02:28;101163.66;;;-0.39;79.66
51876;BME280;34054;52.100;5.116;2022-11-20T01:02:59;101164.00;;;-0.42;79.54
51876;BME280;34054;52.100;5.116;2022-11-20T01:03:31;101161.84;;;-0.39;79.76
51876;BME280;34054;52.100;5.116;2022-11-20T01:04:03;101157.31;;;-0.38;79.45
51876;BME280;34054;52.100;5.116;2022-11-20T01:04:36;101160.81;;;-0.38;79.55
51876;BME280;34054;52.100;5.116;2022-11-20T01:05:08;101167.50;;;-0.42;79.62
51876;BME280;34054;52.100;5.116;2022-11-20T01:05:40;101171.91;;;-0.49;79.71
51876;BME280;34054;52.100;5.116;2022-11-20T01:06:15;101145.78;;;-0.62;79.81
51876;BME280;34054;52.100;5.116;2022-11-20T01:06:48;101176.56;;;-0.51;80.15
51876;BME280;34054;52.100;5.116;2022-11-20T01:07:19;101166.72;;;-0.51;80.03
51876;BME280;34054;52.100;5.116;2022-11-20T01:07:52;101173.56;;;-0.48;79.82
51876;BME280;34054;52.100;5.116;2022-11-20T01:08:24;101169.56;;;-0.52;80.14
51876;BME280;34054;52.100;5.116;2022-11-20T01:08:58;101167.78;;;-0.60;80.21
51876;BME280;34054;52.100;5.116;2022-11-20T01:09:34;101165.13;;;-0.60;80.41
51876;BME280;34054;52.100;5.116;2022-11-20T01:10:06;101173.13;;;-0.60;80.36
51876;BME280;34054;52.100;5.116;2022-11-20T01:10:39;101171.25;;;-0.51;80.24
51876;BME280;34054;52.100;5.116;2022-11-20T01:11:14;101171.38;;;-0.44;80.11
51876;BME280;34054;52.100;5.116;2022-11-20T01:11:47;101169.53;;;-0.44;80.19
51876;BME280;34054;52.100;5.116;2022-11-20T01:12:19;101173.53;;;-0.40;80.02
51876;BME280;34054;52.100;5.116;2022-11-20T01:12:52;101168.34;;;-0.41;79.80
51876;BME280;34054;52.100;5.116;2022-11-20T01:13:39;101148.31;;;-0.69;79.81
51876;BME280;34054;52.100;5.116;2022-11-20T01:14:14;101173.72;;;-0.50;79.90
51876;BME280;34054;52.100;5.116;2022-11-20T01:14:47;101164.03;;;-0.51;80.01
51876;BME280;34054;52.100;5.116;2022-11-20T01:15:19;101176.22;;;-0.48;80.04
51876;BME280;34054;52.100;5.116;2022-11-20T01:15:51;101171.84;;;-0.41;79.70
51876;BME280;34054;52.100;5.116;2022-11-20T01:16:24;101170.19;;;-0.42;79.81
51876;BME280;34054;52.100;5.116;2022-11-20T01:16:59;101166.75;;;-0.27;79.49
51876;BME280;34054;52.100;5.116;2022-11-20T01:17:31;101158.88;;;-0.21;79.00
51876;BME280;34054;52.100;5.116;2022-11-20T01:18:03;101165.22;;;-0.22;78.69
51876;BME280;34054;52.100;5.116;2022-11-20T01:18:37;101152.50;;;-0.43;79.03
51876;BME280;34054;52.100;5.116;2022-11-20T01:19:11;101143.72;;;-0.52;78.85
51876;BME280;34054;52.100;5.116;2022-11-20T01:19:49;101162.31;;;-0.35;79.22
51876;BME280;34054;52.100;5.116;2022-11-20T01:20:20;101162.94;;;-0.33;78.89
51876;BME280;34054;52.100;5.116;2022-11-20T01:20:52;101160.84;;;-0.46;79.00
51876;BME280;34054;52.100;5.116;2022-11-20T01:21:26;101174.34;;;-0.39;79.43
51876;BME280;34054;52.100;5.116;2022-11-20T01:22:00;101171.28;;;-0.28;79.07
51876;BME280;34054;52.100;5.116;2022-11-20T01:22:32;101152.53;;;-0.20;78.95
51876;BME280;34054;52.100;5.116;2022-11-20T01:23:04;101152.75;;;-0.29;79.09
51876;BME280;34054;52.100;5.116;2022-11-20T01:23:38;101129.31;;;-0.66;78.80
51876;BME280;34054;52.100;5.116;2022-11-20T01:24:12;101160.78;;;-0.61;78.86
51876;BME280;34054;52.100;5.116;2022-11-20T01:24:48;101164.81;;;-0.65;79.07
51876;BME280;34054;52.100;5.116;2022-11-20T01:25:20;101160.50;;;-0.74;78.93
51876;BME280;34054;52.100;5.116;2022-11-20T01:25:51;101148.53;;;-0.78;79.19
51876;BME280;34054;52.100;5.116;2022-11-20T01:26:25;101161.88;;;-0.78;79.08
51876;BME280;34054;52.100;5.116;2022-11-20T01:26:59;101157.19;;;-0.76;79.20
51876;BME280;34054;52.100;5.116;2022-11-20T01:27:30;101160.22;;;-0.80;79.55
51876;BME280;34054;52.100;5.116;2022-11-20T01:28:02;101160.16;;;-0.71;79.55
51876;BME280;34054;52.100;5.116;2022-11-20T01:28:35;101158.59;;;-0.57;79.15
51876;BME280;34054;52.100;5.116;2022-11-20T01:29:08;101156.38;;;-0.45;78.54
51876;BME280;34054;52.100;5.116;2022-11-20T01:29:43;101158.59;;;-0.34;78.38
51876;BME280;34054;52.100;5.116;2022-11-20T01:30:16;101159.94;;;-0.30;77.70
51876;BME280;34054;52.100;5.116;2022-11-20T01:30:48;101152.13;;;-0.32;77.28
51876;BME280;34054;52.100;5.116;2022-11-20T01:31:20;101156.25;;;-0.29;77.44
51876;BME280;34054;52.100;5.116;2022-11-20T01:31:53;101155.25;;;-0.28;77.38
51876;BME280;34054;52.100;5.116;2022-11-20T01:32:26;101156.53;;;-0.24;77.08
51876;BME280;34054;52.100;5.116;2022-11-20T01:32:57;101157.41;;;-0.23;77.12
51876;BME280;34054;52.100;5.116;2022-11-20T01:33:29;101150.88;;;-0.21;77.22
51876;BME280;34054;52.100;5.116;2022-11-20T01:34:03;101116.63;;;-0.40;77.21
51876;BME280;34054;52.100;5.116;2022-11-20T01:34:36;101152.53;;;-0.20;77.31
51876;BME280;34054;52.100;5.116;2022-11-20T01:35:08;101143.72;;;-0.28;77.33
51876;BME280;34054;52.100;5.116;2022-11-20T01:35:41;101158.09;;;-0.29;77.57
51876;BME280;34054;52.100;5.116;2022-11-20T01:36:13;101145.81;;;-0.39;77.76
51876;BME280;34054;52.100;5.116;2022-11-20T01:36:46;101159.69;;;-0.43;77.67
51876;BME280;34054;52.100;5.116;2022-11-20T01:37:19;101149.53;;;-0.48;78.07
51876;BME280;34054;52.100;5.116;2022-11-20T01:37:51;101155.22;;;-0.51;77.97
51876;BME280;34054;52.100;5.116;2022-11-20T01:38:22;101151.75;;;-0.52;78.29
51876;BME280;34054;52.100;5.116;2022-11-20T01:38:56;101130.81;;;-0.71;78.25
51876;BME280;34054;52.100;5.116;2022-11-20T01:39:29;101153.22;;;-0.49;78.45
51876;BME280;34054;52.100;5.116;2022-11-20T01:40:03;101157.78;;;-0.35;78.21
51876;BME280;34054;52.100;5.116;2022-11-20T01:40:36;101160.31;;;-0.41;78.05
51876;BME280;34054;52.100;5.116;2022-11-20T01:41:08;101166.19;;;-0.46;78.35
51876;BME280;34054;52.100;5.116;2022-11-20T01:42:02;101156.66;;;-0.40;78.29
51876;BME280;34054;52.100;5.116;2022-11-20T01:43:01;101152.31;;;-0.41;77.93
51876;BME280;34054;52.100;5.116;2022-11-20T01:43:53;101158.84;;;-0.44;78.08
51876;BME280;34054;52.100;5.116;2022-11-20T01:44:50;101153.75;;;-0.54;78.29
51876;BME280;34054;52.100;5.116;2022-11-20T01:46:52;101152.03;;;-0.46;78.48
51876;BME280;34054;52.100;5.116;2022-11-20T01:47:31;101153.28;;;-0.34;78.16
51876;BME280;34054;52.100;5.116;2022-11-20T01:48:08;101152.38;;;-0.50;77.95
51876;BME280;34054;52.100;5.116;2022-11-20T01:48:44;101158.59;;;-0.57;78.27
51876;BME280;34054;52.100;5.116;2022-11-20T01:49:23;101154.47;;;-0.37;78.49
51876;BME280;34054;52.100;5.116;2022-11-20T01:50:02;101157.06;;;-0.28;78.22
51876;BME280;34054;52.100;5.116;2022-11-20T01:50:37;101141.59;;;-0.33;77.96
51876;BME280;34054;52.100;5.116;2022-11-20T01:51:15;101137.09;;;-0.33;77.84
51876;BME280;34054;52.100;5.116;2022-11-20T01:51:55;101151.69;;;-0.20;77.57
51876;BME280;34054;52.100;5.116;2022-11-20T01:52:34;101122.09;;;-0.34;77.56
51876;BME280;34054;52.100;5.116;2022-11-20T01:53:13;101149.06;;;-0.28;77.42
51876;BME280;34054;52.100;5.116;2022-11-20T01:53:51;101149.31;;;-0.38;77.61
51876;BME280;34054;52.100;5.116;2022-11-20T01:54:29;101154.69;;;-0.46;77.57
51876;BME280;34054;52.100;5.116;2022-11-20T01:55:11;101149.41;;;-0.55;78.02
51876;BME280;34054;52.100;5.116;2022-11-20T01:55:48;101146.31;;;-0.67;78.13
51876;BME280;34054;52.100;5.116;2022-11-20T01:56:23;101139.00;;;-0.73;78.65
51876;BME280;34054;52.100;5.116;2022-11-20T01:56:57;101136.81;;;-0.69;78.74
51876;BME280;34054;52.100;5.116;2022-11-20T01:57:33;101142.78;;;-0.67;78.81
51876;BME280;34054;52.100;5.116;2022-11-20T01:58:06;101140.44;;;-0.62;79.15
51876;BME280;34054;52.100;5.116;2022-11-20T01:58:45;101141.94;;;-0.59;78.75
51876;BME280;34054;52.100;5.116;2022-11-20T01:59:23;101138.13;;;-0.65;79.32
51876;BME280;34054;52.100;5.116;2022-11-20T02:00:03;101138.59;;;-0.61;79.04
51876;BME280;34054;52.100;5.116;2022-11-20T02:00:38;101137.94;;;-0.64;78.83
51876;BME280;34054;52.100;5.116;2022-11-20T02:01:11;101139.06;;;-0.58;79.12
51876;BME280;34054;52.100;5.116;2022-11-20T02:01:44;101143.88;;;-0.53;78.96
51876;BME280;34054;52.100;5.116;2022-11-20T02:02:16;101141.28;;;-0.61;78.65
51876;BME280;34054;52.100;5.116;2022-11-20T02:02:54;101144.59;;;-0.59;79.04
51876;BME280;34054;52.100;5.116;2022-11-20T02:03:29;101141.47;;;-0.63;79.13
51876;BME280;34054;52.100;5.116;2022-11-20T02:04:02;101135.16;;;-0.70;79.53
51876;BME280;34054;52.100;5.116;2022-11-20T02:04:35;101139.53;;;-0.77;79.57
51876;BME280;34054;52.100;5.116;2022-11-20T02:05:14;101142.84;;;-0.75;79.56
51876;BME280;34054;52.100;5.116;2022-11-20T02:05:56;101109.25;;;-0.93;79.83
51876;BME280;34054;52.100;5.116;2022-11-20T02:06:36;101140.13;;;-0.67;79.74
51876;BME280;34054;52.100;5.116;2022-11-20T02:07:13;101134.28;;;-0.63;79.56
51876;BME280;34054;52.100;5.116;2022-11-20T02:07:46;101140.00;;;-0.74;79.38
51876;BME280;34054;52.100;5.116;2022-11-20T02:08:19;101116.09;;;-0.90;79.91
51876;BME280;34054;52.100;5.116;2022-11-20T02:08:53;101132.50;;;-0.70;80.04
51876;BME280;34054;52.100;5.116;2022-11-20T02:09:27;101133.50;;;-0.71;79.71
51876;BME280;34054;52.100;5.116;2022-11-20T02:09:59;101133.06;;;-0.83;80.01
51876;BME280;34054;52.100;5.116;2022-11-20T02:10:33;101127.41;;;-0.88;80.10
51876;BME280;34054;52.100;5.116;2022-11-20T02:11:05;101132.22;;;-0.84;79.75
51876;BME280;34054;52.100;5.116;2022-11-20T02:11:39;101122.91;;;-0.88;80.05
51876;BME280;34054;52.100;5.116;2022-11-20T02:12:10;101115.25;;;-0.91;80.00
51876;BME280;34054;52.100;5.116;2022-11-20T02:13:02;101123.53;;;-0.77;79.68
51876;BME280;34054;52.100;5.116;2022-11-20T02:13:49;101115.91;;;-0.89;79.72
51876;BME280;34054;52.100;5.116;2022-11-20T02:14:22;101128.41;;;-0.89;79.89
51876;BME280;34054;52.100;5.116;2022-11-20T02:14:56;101118.91;;;-0.92;79.90
51876;BME280;34054;52.100;5.116;2022-11-20T02:15:29;101121.59;;;-0.92;79.57
51876;BME280;34054;52.100;5.116;2022-11-20T02:16:01;101091.50;;;-1.09;79.44
51876;BME280;34054;52.100;5.116;2022-11-20T02:16:38;101127.72;;;-0.83;79.59
51876;BME280;34054;52.100;5.116;2022-11-20T02:17:16;101121.94;;;-0.95;79.21
51876;BME280;34054;52.100;5.116;2022-11-20T02:17:48;101124.91;;;-0.90;79.37
51876;BME280;34054;52.100;5.116;2022-11-20T02:18:21;101123.56;;;-0.86;79.22
51876;BME280;34054;52.100;5.116;2022-11-20T02:18:54;101112.41;;;-0.89;79.12
51876;BME280;34054;52.100;5.116;2022-11-20T02:19:30;101117.63;;;-0.96;79.04
51876;BME280;34054;52.100;5.116;2022-11-20T02:20:03;101129.63;;;-1.00;79.18
51876;BME280;34054;52.100;5.116;2022-11-20T02:20:36;101125.13;;;-1.00;79.53
51876;BME280;34054;52.100;5.116;2022-11-20T02:21:13;101119.81;;;-1.00;79.65
51876;BME280;34054;52.100;5.116;2022-11-20T02:22:00;101128.06;;;-0.86;79.36
51876;BME280;34054;52.100;5.116;2022-11-20T02:22:43;101128.69;;;-0.76;79.14
51876;BME280;34054;52.100;5.116;2022-11-20T02:23:29;101130.50;;;-0.76;79.14
51876;BME280;34054;52.100;5.116;2022-11-20T02:24:10;101120.53;;;-0.83;79.63
51876;BME280;34054;52.100;5.116;2022-11-20T02:24:45;101121.69;;;-0.77;79.47
51876;BME280;34054;52.100;5.116;2022-11-20T02:25:19;101118.88;;;-0.84;79.70
51876;BME280;34054;52.100;5.116;2022-11-20T02:25:52;101125.06;;;-0.83;79.61
51876;BME280;34054;52.100;5.116;2022-11-20T02:26:31;101121.44;;;-0.90;79.89
51876;BME280;34054;52.100;5.116;2022-11-20T02:27:07;101124.63;;;-0.95;80.07
51876;BME280;34054;52.100;5.116;2022-11-20T02:27:41;101114.31;;;-1.06;80.55
51876;BME280;34054;52.100;5.116;2022-11-20T02:28:15;101130.59;;;-0.93;80.56
51876;BME280;34054;52.100;5.116;2022-11-20T02:28:48;101126.28;;;-0.94;80.24
51876;BME280;34054;52.100;5.116;2022-11-20T02:29:25;101127.88;;;-0.85;80.17
51876;BME280;34054;52.100;5.116;2022-11-20T02:30:01;101101.44;;;-0.95;80.29
51876;BME280;34054;52.100;5.116;2022-11-20T02:30:35;101129.47;;;-0.67;79.89
51876;BME280;34054;52.100;5.116;2022-11-20T02:31:06;101137.06;;;-0.56;79.51
51876;BME280;34054;52.100;5.116;2022-11-20T02:31:41;101129.81;;;-0.70;79.66
51876;BME280;34054;52.100;5.116;2022-11-20T02:32:18;101124.22;;;-0.84;79.69
51876;BME280;34054;52.100;5.116;2022-11-20T02:32:50;101126.19;;;-0.77;79.86
51876;BME280;34054;52.100;5.116;2022-11-20T02:33:23;101132.66;;;-0.72;79.93
51876;BME280;34054;52.100;5.116;2022-11-20T02:33:56;101105.25;;;-0.89;79.79
51876;BME280;34054;52.100;5.116;2022-11-20T02:34:28;101126.31;;;-0.71;79.71
51876;BME280;34054;52.100;5.116;2022-11-20T02:35:07;101123.06;;;-0.81;79.71
51876;BME280;34054;52.100;5.116;2022-11-20T02:35:42;101126.34;;;-0.79;79.79
51876;BME280;34054;52.100;5.116;2022-11-20T02:36:16;101130.16;;;-0.73;79.80
51876;BME280;34054;52.100;5.116;2022-11-20T02:36:49;101105.38;;;-0.82;79.71
51876;BME280;34054;52.100;5.116;2022-11-20T02:37:26;101130.13;;;-0.65;79.80
51876;BME280;34054;52.100;5.116;2022-11-20T02:38:02;101124.81;;;-0.73;79.70
51876;BME280;34054;52.100;5.116;2022-11-20T02:38:35;101127.06;;;-0.85;79.53
51876;BME280;34054;52.100;5.116;2022-11-20T02:39:09;101128.38;;;-0.81;79.93
51876;BME280;34054;52.100;5.116;2022-11-20T02:39:45;101137.16;;;-0.72;79.54
51876;BME280;34054;52.100;5.116;2022-11-20T02:40:19;101132.50;;;-0.70;79.85
51876;BME280;34054;52.100;5.116;2022-11-20T02:40:52;101110.16;;;-0.69;79.44
51876;BME280;34054;52.100;5.116;2022-11-20T02:41:30;101124.50;;;-0.70;79.56
51876;BME280;34054;52.100;5.116;2022-11-20T02:42:04;101127.19;;;-0.78;79.62
51876;BME280;34054;52.100;5.116;2022-11-20T02:42:36;101130.47;;;-0.68;79.46
51876;BME280;34054;52.100;5.116;2022-11-20T02:43:08;101141.31;;;-0.70;79.29
51876;BME280;34054;52.100;5.116;2022-11-20T02:43:41;101136.88;;;-0.77;79.46
51876;BME280;34054;52.100;5.116;2022-11-20T02:44:13;101129.22;;;-0.81;79.70
51876;BME280;34054;52.100;5.116;2022-11-20T02:44:45;101137.97;;;-0.72;79.49
51876;BME280;34054;52.100;5.116;2022-11-20T02:45:17;101128.25;;;-0.88;79.50
51876;BME280;34054;52.100;5.116;2022-11-20T02:45:49;101137.72;;;-0.85;79.44
51876;BME280;34054;52.100;5.116;2022-11-20T02:46:21;101125.25;;;-0.93;79.60
51876;BME280;34054;52.100;5.116;2022-11-20T02:46:56;101129.06;;;-0.87;79.49
51876;BME280;34054;52.100;5.116;2022-11-20T02:47:28;101126.41;;;-0.87;79.66
51876;BME280;34054;52.100;5.116;2022-11-20T02:47:59;101128.53;;;-0.83;79.63
51876;BME280;34054;52.100;5.116;2022-11-20T02:48:32;101124.88;;;-0.82;79.59
51876;BME280;34054;52.100;5.116;2022-11-20T02:49:04;101126.88;;;-0.84;79.76
51876;BME280;34054;52.100;5.116;2022-11-20T02:49:36;101124.81;;;-0.73;79.52
51876;BME280;34054;52.100;5.116;2022-11-20T02:50:09;101125.16;;;-0.76;79.44
51876;BME280;34054;52.100;5.116;2022-11-20T02:50:40;101120.91;;;-0.86;79.90
51876;BME280;34054;52.100;5.116;2022-11-20T02:51:12;101125.91;;;-0.91;79.92
51876;BME280;34054;52.100;5.116;2022-11-20T02:51:44;101127.75;;;-0.91;80.02
51876;BME280;34054;52.100;5.116;2022-11-20T02:52:16;101115.63;;;-1.02;79.89
51876;BME280;34054;52.100;5.116;2022-11-20T02:52:48;101119.84;;;-1.08;80.03
51876;BME280;34054;52.100;5.116;2022-11-20T02:53:20;101123.84;;;-1.12;80.25
51876;BME280;34054;52.100;5.116;2022-11-20T02:53:51;101113.00;;;-1.11;80.40
51876;BME280;34054;52.100;5.116;2022-11-20T02:54:25;101123.63;;;-0.94;80.53
51876;BME280;34054;52.100;5.116;2022-11-20T02:54:57;101124.91;;;-0.90;80.23
51876;BME280;34054;52.100;5.116;2022-11-20T02:55:29;101110.28;;;-1.02;80.07
51876;BME280;34054;52.100;5.116;2022-11-20T02:56:02;101120.63;;;-0.99;80.12
51876;BME280;34054;52.100;5.116;2022-11-20T02:56:34;101113.47;;;-0.99;80.00
51876;BME280;34054;52.100;5.116;2022-11-20T02:57:08;101116.81;;;-1.05;80.27
51876;BME280;34054;52.100;5.116;2022-11-20T02:57:41;101118.66;;;-1.05;80.45
51876;BME280;34054;52.100;5.116;2022-11-20T02:58:12;101119.44;;;-0.97;80.59
51876;BME280;34054;52.100;5.116;2022-11-20T02:58:44;101105.63;;;-1.00;80.18
51876;BME280;34054;52.100;5.116;2022-11-20T02:59:16;101106.28;;;-0.98;80.44